Time;durP1;ratioP1;P1;durP2;ratioP2;P2;SDS_P1;SDS_P2;PMS_P1;PMS_P2;Temp;Humidity;BMP_temperature;BMP_pressure;BME280_temperature;BME280_humidity;BME280_pressure;Samples;Min_cycle;Max_cycle;Signal;HPM_P1;HPM_P2
2022/07/01 00:02:06;;;;;;;5.73;5.30;;;22.80;91.00;;;23.36;58.17;94947.34;5116973;27;20885;-57
2022/07/01 00:04:33;;;;;;;6.20;5.60;;;22.80;91.20;;;23.33;58.62;94939.72;5122742;27;20994;-55
2022/07/01 00:07:00;;;;;;;7.20;5.20;;;22.70;91.20;;;23.26;58.12;94932.56;5118721;27;20471;-55
2022/07/01 00:09:28;;;;;;;5.60;5.10;;;22.70;91.40;;;23.23;58.92;94942.91;5121851;27;20463;-55
2022/07/01 00:11:57;;;;;;;11.53;5.43;;;22.70;91.60;;;23.19;58.99;94939.00;5118347;27;21063;-55
2022/07/01 00:14:24;;;;;;;8.07;5.43;;;22.60;91.60;;;23.17;58.64;94947.25;5121892;27;20455;-54
2022/07/01 00:16:51;;;;;;;7.37;5.20;;;22.60;91.70;;;23.12;58.68;94955.16;5119043;27;20475;-56
2022/07/01 00:19:19;;;;;;;10.57;5.53;;;22.60;91.80;;;23.09;58.76;94955.59;5116759;27;20467;-55
2022/07/01 00:21:46;;;;;;;7.73;6.20;;;22.50;91.90;;;23.05;59.48;94954.31;5122212;27;20688;-53
2022/07/01 00:24:13;;;;;;;5.53;5.03;;;22.50;92.20;;;23.02;58.90;94962.81;5121259;27;20457;-56
2022/07/01 00:26:41;;;;;;;6.60;4.40;;;22.50;92.30;;;22.99;59.26;94960.56;5125677;27;20596;-53
2022/07/01 00:29:09;;;;;;;6.30;5.47;;;22.40;92.20;;;22.96;59.61;94955.63;5125640;27;20460;-57
2022/07/01 00:31:37;;;;;;;6.20;5.10;;;22.40;92.40;;;22.94;59.53;94960.38;5122609;27;20553;-54
2022/07/01 00:34:04;;;;;;;7.80;5.70;;;22.40;92.50;;;22.90;60.04;94963.50;5123797;27;20456;-55
2022/07/01 00:36:31;;;;;;;6.03;5.53;;;22.40;92.80;;;22.88;59.78;94962.06;5120167;28;20485;-54
2022/07/01 00:38:59;;;;;;;9.40;5.20;;;22.30;92.90;;;22.85;60.10;94957.97;5123298;27;20456;-55
2022/07/01 00:41:26;;;;;;;5.17;4.87;;;22.30;92.90;;;22.82;59.68;94958.38;5118385;28;20483;-56
2022/07/01 00:43:54;;;;;;;9.73;5.97;;;22.30;93.10;;;22.80;60.40;94968.50;5115363;28;20524;-55
2022/07/01 00:46:24;;;;;;;6.40;5.30;;;22.30;93.30;;;22.77;60.03;94962.75;5121430;28;20484;-53
2022/07/01 00:48:51;;;;;;;7.43;4.53;;;22.20;93.20;;;22.74;60.50;94964.81;5118092;28;20454;-55
2022/07/01 00:51:19;;;;;;;6.30;5.63;;;22.20;93.40;;;22.72;60.36;94963.38;5117334;28;21050;-58
2022/07/01 00:53:47;;;;;;;5.43;4.97;;;22.20;93.50;;;22.71;60.41;94964.41;5122434;28;20456;-55
2022/07/01 00:56:14;;;;;;;6.80;4.90;;;22.10;93.60;;;22.68;60.02;94960.31;5119622;28;20515;-54
2022/07/01 00:58:41;;;;;;;8.63;5.00;;;22.10;93.70;;;22.67;60.90;94961.34;5120822;28;20461;-55
2022/07/01 01:01:09;;;;;;;7.03;4.70;;;22.10;93.90;;;22.66;60.70;94965.03;5119808;27;20473;-56
2022/07/01 01:03:37;;;;;;;5.90;5.40;;;22.10;93.90;;;22.65;60.66;94959.91;5122229;27;20495;-56
2022/07/01 01:06:05;;;;;;;9.33;5.37;;;22.10;94.00;;;22.64;60.40;94966.31;5127494;27;20560;-55
2022/07/01 01:08:32;;;;;;;8.40;5.60;;;22.10;94.10;;;22.61;60.55;94964.88;5121363;27;20954;-55
2022/07/01 01:11:00;;;;;;;6.63;5.50;;;22.00;94.50;;;22.60;60.62;94965.06;5120745;27;20475;-52
2022/07/01 01:13:27;;;;;;;7.20;5.33;;;22.00;94.20;;;22.58;60.71;94964.47;5124726;27;20463;-55
2022/07/01 01:15:54;;;;;;;5.87;5.30;;;22.00;94.20;;;22.55;60.91;94963.84;5119833;27;20484;-56
2022/07/01 01:18:22;;;;;;;7.60;5.33;;;22.00;94.30;;;22.54;60.37;94961.38;5123829;27;20464;-56
2022/07/01 01:20:50;;;;;;;5.93;5.33;;;22.00;94.20;;;22.52;60.54;94958.91;5126813;27;20472;-56
2022/07/01 01:23:18;;;;;;;12.50;5.53;;;21.90;94.20;;;22.50;60.68;94944.91;5128723;27;20838;-55
2022/07/01 01:25:47;;;;;;;5.60;5.07;;;21.90;94.20;;;22.48;60.78;94960.38;5125825;27;20472;-54
2022/07/01 01:28:14;;;;;;;13.63;5.60;;;21.90;94.20;;;22.47;60.76;94958.72;5129396;27;20905;-56
2022/07/01 01:30:42;;;;;;;23.53;5.70;;;21.90;94.20;;;22.46;60.71;94961.63;5123770;27;20472;-52
2022/07/01 01:33:11;;;;;;;5.60;4.80;;;21.90;94.30;;;22.44;60.43;94967.19;5124969;27;20459;-55
2022/07/01 01:35:38;;;;;;;6.60;5.40;;;21.90;94.30;;;22.43;60.91;94968.22;5126033;27;20483;-54
2022/07/01 01:38:07;;;;;;;7.83;5.23;;;21.90;94.40;;;22.41;60.72;94972.97;5125246;27;20492;-54
2022/07/01 01:40:34;;;;;;;4.87;4.57;;;21.90;94.30;;;22.40;60.24;94981.22;5123733;27;20483;-56
2022/07/01 01:43:02;;;;;;;6.43;5.90;;;21.90;94.30;;;22.38;60.54;94968.03;5123555;27;20918;-54
2022/07/01 01:45:29;;;;;;;7.80;5.33;;;21.90;94.40;;;22.37;60.86;94964.53;5124081;27;20480;-56
2022/07/01 01:47:56;;;;;;;10.10;5.23;;;21.80;94.30;;;22.37;60.54;94975.25;5127745;27;20466;-53
2022/07/01 01:50:24;;;;;;;7.80;6.20;;;21.80;94.30;;;22.36;60.25;94978.16;5125043;27;20476;-55
2022/07/01 01:52:51;;;;;;;7.30;5.23;;;21.80;94.30;;;22.35;60.22;94976.50;5128954;27;20467;-55
2022/07/01 01:55:20;;;;;;;10.10;5.13;;;21.80;94.20;;;22.32;60.51;94975.09;5122589;27;20473;-56
2022/07/01 01:57:48;;;;;;;6.97;4.47;;;21.80;94.10;;;22.30;60.22;94976.28;5122373;27;20964;-55
2022/07/01 02:00:16;;;;;;;11.60;4.87;;;21.80;94.10;;;22.28;60.25;94981.84;5121180;27;20488;-55
2022/07/01 02:02:43;;;;;;;16.47;4.40;;;21.70;94.10;;;22.25;60.44;94974.25;5125378;27;21032;-54
2022/07/01 02:05:12;;;;;;;5.43;5.03;;;21.70;94.10;;;22.23;60.31;94973.63;5118432;27;20521;-56
2022/07/01 02:07:39;;;;;;;7.03;4.97;;;21.70;94.20;;;22.22;60.15;94973.84;5124934;27;20459;-56
2022/07/01 02:10:07;;;;;;;6.47;4.63;;;21.70;94.20;;;22.19;60.19;94975.88;5123588;27;20584;-54
2022/07/01 02:12:36;;;;;;;12.53;5.83;;;21.70;94.30;;;22.18;60.74;94976.09;5124097;27;20456;-54
2022/07/01 02:15:04;;;;;;;15.10;5.40;;;21.60;94.30;;;22.14;60.66;94991.78;5123145;27;21194;-56
2022/07/01 02:17:31;;;;;;;7.20;5.07;;;21.60;94.40;;;22.12;60.88;94987.66;5119582;27;20495;-55
2022/07/01 02:19:58;;;;;;;10.57;5.60;;;21.60;94.50;;;22.11;60.80;94994.88;5123439;27;20476;-55
2022/07/01 02:22:25;;;;;;;8.80;5.30;;;21.60;94.60;;;22.09;60.55;94988.06;5119620;27;20487;-54
2022/07/01 02:24:53;;;;;;;13.90;4.90;;;21.50;94.60;;;22.07;60.83;94988.28;5123566;27;20483;-55
2022/07/01 02:27:20;;;;;;;7.77;5.37;;;21.50;94.60;;;22.06;60.90;94999.19;5123373;27;21015;-56
2022/07/01 02:29:49;;;;;;;11.13;5.10;;;21.50;94.60;;;22.04;60.87;94996.72;5125064;27;20476;-53
2022/07/01 02:32:16;;;;;;;4.93;4.63;;;21.50;94.60;;;22.04;60.96;94999.41;5126714;27;20468;-53
2022/07/01 02:34:43;;;;;;;5.83;5.00;;;21.50;94.60;;;22.02;61.13;95006.84;5121102;27;20821;-54
2022/07/01 02:37:10;;;;;;;9.33;5.30;;;21.50;94.90;;;22.00;60.64;95006.22;5123499;27;20460;-55
2022/07/01 02:39:38;;;;;;;9.97;5.30;;;21.50;94.80;;;21.96;60.96;95008.47;5125035;27;20464;-55
2022/07/01 02:42:25;;;;;;;6.27;5.77;;;21.50;95.00;;;21.94;61.33;95005.19;5119587;27;20545;-55
2022/07/01 02:44:54;;;;;;;8.63;4.80;;;21.40;95.00;;;21.92;61.16;95001.06;5121491;27;20488;-56
2022/07/01 02:47:22;;;;;;;7.33;4.63;;;21.40;95.00;;;21.90;61.27;95003.13;5123774;27;20462;-54
2022/07/01 02:49:51;;;;;;;5.80;5.13;;;21.40;95.20;;;21.89;61.45;95015.72;5120906;27;20453;-54
2022/07/01 02:52:19;;;;;;;6.17;4.90;;;21.40;95.60;;;21.87;61.56;95017.75;5119444;27;20824;-56
2022/07/01 02:54:46;;;;;;;8.10;5.53;;;21.30;95.70;;;21.88;61.75;95015.91;5122355;27;20544;-56
2022/07/01 02:57:13;;;;;;;8.83;4.80;;;21.30;95.50;;;21.87;61.88;95011.59;5123011;27;20464;-56
2022/07/01 02:59:41;;;;;;;6.63;5.13;;;21.30;95.50;;;21.82;61.58;95015.69;5123495;27;20460;-55
2022/07/01 03:02:09;;;;;;;8.50;5.73;;;21.30;95.40;;;21.81;61.75;95014.06;5121373;27;20449;-53
2022/07/01 03:04:37;;;;;;;7.80;5.23;;;21.30;95.60;;;21.81;61.79;95023.94;5122613;27;21022;-52
2022/07/01 03:07:04;;;;;;;6.60;5.43;;;21.30;95.70;;;21.81;61.80;95026.59;5118230;27;20440;-55
2022/07/01 03:09:34;;;;;;;6.00;5.40;;;21.30;95.70;;;21.80;61.93;95027.66;5119556;27;20982;-54
2022/07/01 03:12:24;;;;;;;8.80;5.17;;;21.30;95.70;;;21.80;61.46;95028.47;5117387;27;20472;-54
2022/07/01 03:14:48;;;;;;;7.83;4.07;;;21.30;95.80;;;21.81;62.03;95032.81;5116237;27;20630;-55
2022/07/01 03:17:17;;;;;;;7.43;5.60;;;21.30;95.90;;;21.81;61.91;95032.81;5126565;27;20440;-56
2022/07/01 03:19:45;;;;;;;7.80;5.63;;;21.30;95.90;;;21.81;62.53;95040.00;5123144;27;20456;-55
2022/07/01 03:22:13;;;;;;;6.20;5.70;;;21.30;96.00;;;21.81;61.93;95037.31;5122259;27;20567;-56
2022/07/01 03:24:40;;;;;;;11.20;6.20;;;21.30;95.90;;;21.80;62.14;95035.69;5123754;27;20507;-55
2022/07/01 03:27:07;;;;;;;12.37;5.67;;;21.30;96.10;;;21.79;62.07;95032.16;5121960;27;20468;-57
2022/07/01 03:29:34;;;;;;;10.50;5.40;;;21.30;96.10;;;21.79;62.27;95040.19;5118348;27;20453;-56
2022/07/01 03:32:02;;;;;;;14.63;5.90;;;21.20;96.10;;;21.80;62.14;95041.06;5121311;27;21112;-53
2022/07/01 03:34:30;;;;;;;10.73;5.10;;;21.30;96.20;;;21.82;62.23;95041.66;5125391;27;20843;-57
2022/07/01 03:36:58;;;;;;;10.43;5.60;;;21.30;96.20;;;21.84;62.21;95040.44;5114024;27;20476;-56
2022/07/01 03:39:25;;;;;;;10.73;5.90;;;21.30;96.30;;;21.87;61.89;95044.53;5122193;27;20459;-54
2022/07/01 03:41:52;;;;;;;13.80;5.67;;;21.30;96.30;;;21.89;62.17;95045.16;5119544;27;20476;-53
2022/07/01 03:44:20;;;;;;;6.00;5.10;;;21.30;96.10;;;21.89;62.03;95044.31;5125921;27;20948;-56
2022/07/01 03:46:47;;;;;;;19.97;6.10;;;21.40;96.20;;;21.89;62.14;95044.31;5127070;27;20475;-57
2022/07/01 03:49:14;;;;;;;13.30;6.07;;;21.30;96.20;;;21.88;61.86;95040.03;5127559;27;20450;-55
2022/07/01 03:51:43;;;;;;;16.40;5.53;;;21.30;96.00;;;21.88;62.18;95037.34;5124540;27;20456;-55
2022/07/01 03:56:54;;;;;;;9.73;5.77;;;21.30;96.20;;;21.93;62.00;95053.59;5113619;27;20847;-55
2022/07/01 03:59:22;;;;;;;11.10;5.37;;;21.40;96.20;;;21.93;62.17;95050.94;5124175;27;20459;-58
2022/07/01 04:01:49;;;;;;;13.70;5.50;;;21.40;96.20;;;21.94;61.84;95041.88;5123070;27;20487;-53
2022/07/01 04:04:16;;;;;;;11.97;6.50;;;21.40;96.00;;;21.94;61.87;95047.22;5126142;27;21010;-55
2022/07/01 04:06:46;;;;;;;10.13;6.70;;;21.40;96.00;;;21.95;62.48;95055.06;5126468;27;20468;-55
2022/07/01 04:09:14;;;;;;;12.90;4.93;;;21.40;96.40;;;21.99;62.25;95050.09;5113257;27;20449;-56
2022/07/01 04:11:41;;;;;;;11.77;6.27;;;21.50;96.50;;;22.01;62.62;95056.91;5124567;27;20511;-56
2022/07/01 04:14:09;;;;;;;6.90;5.63;;;21.50;96.50;;;22.06;62.36;95067.00;5122585;27;20891;-56
2022/07/01 04:16:36;;;;;;;15.67;6.77;;;21.50;96.60;;;22.11;62.61;95059.16;5124536;27;20472;-57
2022/07/01 04:19:03;;;;;;;10.40;6.83;;;21.60;96.70;;;22.17;62.48;95060.22;5120249;27;20452;-56
2022/07/01 04:24:17;;;;;;;12.87;6.63;;;21.70;96.70;;;22.27;62.91;95070.50;5121843;27;20479;-55
2022/07/01 04:26:44;;;;;;;6.40;5.70;;;21.70;96.80;;;22.31;62.28;95061.03;5124956;27;20482;-56
2022/07/01 04:29:11;;;;;;;7.03;5.77;;;21.80;96.80;;;22.37;62.10;95069.06;5122309;27;20448;-55
2022/07/01 04:31:39;;;;;;;15.77;6.07;;;21.80;96.60;;;22.43;62.47;95059.34;5116506;27;20542;-55
2022/07/01 04:34:07;;;;;;;21.17;6.00;;;21.90;96.60;;;22.46;62.06;95058.94;5120372;27;20478;-54
2022/07/01 04:36:34;;;;;;;11.30;6.23;;;21.90;96.60;;;22.49;61.93;95063.88;5125985;27;20472;-54
2022/07/01 04:39:01;;;;;;;7.40;6.53;;;21.90;96.30;;;22.52;61.78;95068.81;5123453;27;20471;-54
2022/07/01 04:44:15;;;;;;;10.50;6.00;;;22.00;96.10;;;22.60;61.20;95069.63;5114377;28;20614;-56
2022/07/01 04:46:42;;;;;;;18.70;6.30;;;22.00;95.80;;;22.64;61.33;95068.19;5117558;28;20911;-56
2022/07/01 04:49:09;;;;;;;13.83;6.43;;;22.10;95.80;;;22.66;60.49;95060.75;5118442;28;20456;-54
2022/07/01 04:51:37;;;;;;;13.77;6.00;;;22.10;95.60;;;22.69;60.75;95063.00;5117675;28;20496;-56
2022/07/01 04:54:05;;;;;;;8.63;5.90;;;22.10;95.90;;;22.74;61.20;95068.56;5118832;28;20549;-54
2022/07/01 04:56:34;;;;;;;9.30;6.87;;;22.20;95.70;;;22.81;61.07;95066.69;5120688;28;20471;-56
2022/07/01 04:59:02;;;;;;;17.10;6.50;;;22.20;95.70;;;22.89;60.78;95063.75;5119295;28;20557;-56
2022/07/01 05:01:29;;;;;;;21.53;9.00;;;22.30;95.60;;;22.98;60.28;95067.03;5119884;28;20456;-56
2022/07/01 05:03:57;;;;;;;17.57;6.70;;;22.40;95.50;;;23.07;60.76;95064.97;5120098;28;20506;-54
2022/07/01 05:06:24;;;;;;;12.07;6.60;;;22.50;95.50;;;23.14;60.12;95057.72;5129751;27;20478;-55
2022/07/01 05:08:51;;;;;;;17.30;6.27;;;22.60;95.40;;;23.20;60.09;95059.53;5121855;28;20447;-55
2022/07/01 05:11:19;;;;;;;13.40;6.73;;;22.60;95.40;;;23.25;60.20;95062.44;5121410;28;20937;-59
2022/07/01 05:13:47;;;;;;;15.43;6.60;;;22.70;95.40;;;23.30;60.11;95064.47;5119202;28;20456;-56
2022/07/01 05:16:15;;;;;;;13.50;6.30;;;22.70;95.20;;;23.36;60.00;95068.97;5122410;28;20471;-55
2022/07/01 05:24:11;;;;;;;15.20;7.67;;;22.90;95.30;;;23.67;59.59;95070.03;5120988;28;20518;-53
2022/07/01 05:26:38;;;;;;;12.03;6.50;;;23.10;95.30;;;23.81;60.28;95065.38;5119038;28;20468;-54
2022/07/01 05:29:06;;;;;;;12.40;7.43;;;23.20;95.40;;;23.97;59.99;95072.94;5120128;28;20858;-55
2022/07/01 05:31:34;;;;;;;10.60;7.20;;;23.30;95.30;;;24.14;59.93;95064.34;5119627;28;20475;-56
2022/07/01 05:34:01;;;;;;;13.90;8.07;;;23.50;95.20;;;24.32;59.07;95063.53;5118155;28;20452;-59
2022/07/01 05:36:29;;;;;;;8.63;7.73;;;23.60;94.90;;;24.50;59.15;95068.94;5121903;28;20514;-55
2022/07/01 05:38:56;;;;;;;15.50;7.07;;;23.80;94.60;;;24.69;57.86;95069.00;5120802;28;20448;-53
2022/07/01 05:41:23;;;;;;;12.03;6.63;;;24.00;94.40;;;24.87;57.70;95070.88;5118415;28;20475;-57
2022/07/01 05:43:51;;;;;;;24.33;7.10;;;24.20;94.00;;;25.03;57.90;95075.66;5119693;28;20523;-54
2022/07/01 05:46:19;;;;;;;14.37;8.17;;;24.30;93.70;;;25.19;56.88;95070.69;5120240;28;20591;-55
2022/07/01 05:48:47;;;;;;;11.33;7.47;;;24.50;93.40;;;25.35;56.78;95072.81;5120793;27;20449;-54
2022/07/01 05:51:14;;;;;;;9.43;7.20;;;24.60;93.30;;;25.50;56.37;95072.41;5130060;27;20507;-55
2022/07/01 05:53:43;;;;;;;10.03;5.47;;;24.80;92.90;;;25.62;55.71;95072.44;5121673;27;20797;-55
2022/07/01 05:56:10;;;;;;;17.23;6.93;;;24.90;92.70;;;25.75;55.87;95074.16;5124235;27;20494;-53
2022/07/01 05:58:38;;;;;;;14.90;6.63;;;25.00;92.30;;;25.86;55.42;95072.53;5127051;27;20489;-53
2022/07/01 06:01:05;;;;;;;8.87;6.00;;;25.10;92.00;;;25.98;55.36;95072.56;5128755;27;20478;-55
2022/07/01 06:03:34;;;;;;;10.10;5.70;;;25.20;91.90;;;26.16;54.65;95071.69;5128415;27;20452;-55
2022/07/01 06:06:01;;;;;;;17.07;5.93;;;25.40;91.50;;;26.30;54.62;95075.78;5129148;27;20995;-56
2022/07/01 06:08:28;;;;;;;15.33;6.57;;;25.60;91.30;;;26.44;53.93;95070.97;5128696;27;20486;-56
2022/07/01 06:10:56;;;;;;;21.70;6.27;;;25.70;90.90;;;26.58;53.57;95077.78;5124720;27;20486;-55
2022/07/01 06:13:24;;;;;;;11.23;6.07;;;25.80;90.30;;;26.71;53.22;95078.63;5129211;27;20448;-55
2022/07/01 06:15:51;;;;;;;16.90;6.17;;;26.00;90.20;;;26.84;53.04;95078.38;5128971;27;20495;-54
2022/07/01 06:18:18;;;;;;;7.20;6.30;;;26.10;90.00;;;27.01;52.71;95073.06;5126575;27;20447;-55
2022/07/01 06:20:47;;;;;;;10.50;5.23;;;26.20;89.20;;;27.17;52.65;95080.44;5128656;27;20559;-51
2022/07/01 06:23:14;;;;;;;12.10;5.70;;;26.40;88.60;;;27.33;52.86;95083.50;5125092;27;20836;-54
2022/07/01 06:25:42;;;;;;;9.40;5.23;;;26.60;88.40;;;27.48;51.87;95075.69;5126349;27;20583;-56
2022/07/01 06:28:09;;;;;;;15.87;5.80;;;26.70;87.70;;;27.64;50.94;95084.88;5125815;27;20452;-55
2022/07/01 06:30:36;;;;;;;10.43;4.67;;;26.80;85.60;;;27.75;50.70;95080.50;5124332;27;20582;-54
2022/07/01 06:33:04;;;;;;;5.90;5.33;;;27.00;85.20;;;27.91;50.55;95082.38;5123174;27;20456;-52
2022/07/01 06:35:31;;;;;;;10.90;4.83;;;27.10;84.40;;;28.06;50.30;95078.34;5123222;27;20472;-55
2022/07/01 06:38:00;;;;;;;5.53;5.00;;;27.30;83.70;;;28.21;49.47;95073.19;5120513;27;20458;-54
2022/07/01 06:40:27;;;;;;;5.23;4.73;;;27.40;82.30;;;28.35;49.92;95075.56;5122320;27;20776;-56
2022/07/01 06:42:55;;;;;;;6.27;5.00;;;27.60;81.50;;;28.46;49.23;95074.69;5121788;27;20960;-54
2022/07/01 06:45:22;;;;;;;5.63;5.13;;;27.70;80.70;;;28.59;49.14;95068.94;5125069;27;20926;-55
2022/07/01 06:47:50;;;;;;;6.77;5.47;;;27.80;80.40;;;28.71;48.46;95071.53;5123076;27;20814;-54
2022/07/01 06:50:17;;;;;;;11.23;5.27;;;27.90;79.70;;;28.81;48.38;95072.75;5120295;27;20464;-53
2022/07/01 06:52:44;;;;;;;6.73;5.23;;;28.00;78.80;;;28.86;48.06;95079.06;5124035;27;20455;-53
2022/07/01 06:55:13;;;;;;;8.10;4.20;;;28.10;78.00;;;28.91;47.72;95073.72;5119708;27;20471;-54
2022/07/01 06:57:40;;;;;;;14.70;5.53;;;28.20;77.40;;;28.97;47.67;95067.31;5128219;27;20439;-54
2022/07/01 07:00:09;;;;;;;11.70;5.17;;;28.20;76.70;;;29.07;47.53;95063.91;5127787;27;20464;-55
2022/07/01 07:02:37;;;;;;;11.60;4.73;;;28.30;75.50;;;29.15;46.90;95071.56;5127040;27;20460;-53
2022/07/01 07:05:04;;;;;;;11.43;5.00;;;28.40;74.70;;;29.20;47.33;95068.13;5127730;27;20548;-54
2022/07/01 07:07:32;;;;;;;5.80;4.50;;;28.40;74.70;;;29.28;46.89;95075.00;5120869;27;20823;-53
2022/07/01 07:09:59;;;;;;;20.23;5.87;;;28.50;74.70;;;29.43;46.87;95079.78;5127406;27;20468;-54
2022/07/01 07:12:28;;;;;;;5.87;4.77;;;28.60;74.40;;;29.52;46.44;95080.19;5127815;27;20198;-55
2022/07/01 07:14:55;;;;;;;11.77;5.67;;;28.70;73.50;;;29.56;46.55;95084.84;5127317;27;20459;-53
2022/07/01 07:17:22;;;;;;;7.03;4.90;;;28.80;72.50;;;29.58;46.25;95088.09;5125623;27;20444;-54
2022/07/01 07:19:50;;;;;;;13.30;4.67;;;28.80;72.10;;;29.71;45.77;95084.16;5127547;27;20206;-54
2022/07/01 07:22:17;;;;;;;5.80;4.87;;;28.90;71.70;;;29.89;45.99;95082.22;5123655;27;20194;-55
2022/07/01 07:24:44;;;;;;;7.53;4.97;;;29.10;71.40;;;30.07;45.70;95081.00;5127082;27;20270;-54
2022/07/01 07:27:12;;;;;;;8.93;4.77;;;29.20;71.00;;;30.24;45.33;95087.16;5127682;27;20278;-56
2022/07/01 07:29:40;;;;;;;10.87;4.43;;;29.40;70.20;;;30.42;45.56;95087.84;5127514;27;20275;-55
2022/07/01 07:32:08;;;;;;;6.37;5.00;;;29.50;69.70;;;30.56;45.29;95080.91;5126550;27;20221;-54
2022/07/01 07:34:37;;;;;;;7.20;5.23;;;29.70;69.00;;;30.69;44.44;95077.75;5126952;27;20205;-55
2022/07/01 07:37:04;;;;;;;10.77;4.77;;;29.90;68.10;;;30.80;44.34;95077.78;5124206;27;20202;-53
2022/07/01 07:39:32;;;;;;;7.83;4.40;;;29.90;67.60;;;30.91;43.55;95074.06;5126906;27;20251;-55
2022/07/01 07:41:59;;;;;;;9.00;4.27;;;30.10;67.00;;;31.10;43.84;95077.97;5127608;27;20230;-56
2022/07/01 07:44:26;;;;;;;6.57;4.20;;;30.20;66.10;;;31.29;43.65;95072.09;5127656;27;20804;-57
2022/07/01 07:46:56;;;;;;;6.30;5.07;;;30.40;65.50;;;31.48;42.88;95068.91;5127335;27;20222;-56
2022/07/01 07:49:23;;;;;;;4.53;3.87;;;30.60;64.70;;;31.61;42.15;95068.44;5127333;27;20550;-51
2022/07/01 07:51:51;;;;;;;5.47;4.35;;;30.80;64.10;;;31.70;42.74;95066.81;5126804;27;20225;-55
2022/07/01 07:54:18;;;;;;;7.20;4.00;;;30.90;63.00;;;31.81;41.99;95065.75;5126724;27;20205;-55
2022/07/01 07:56:45;;;;;;;12.93;4.55;;;31.00;63.00;;;31.95;42.20;95076.13;5126337;27;20268;-56
2022/07/01 07:59:13;;;;;;;11.05;4.72;;;31.10;62.60;;;31.98;41.88;95070.94;5126824;27;20198;-55
2022/07/01 08:01:40;;;;;;;6.32;4.22;;;31.10;61.70;;;31.95;41.33;95065.22;5120764;27;20698;-54
2022/07/01 08:04:09;;;;;;;11.40;4.45;;;31.10;60.70;;;31.95;41.23;95066.03;5126179;27;20208;-57
2022/07/01 08:06:36;;;;;;;12.05;4.40;;;31.20;60.40;;;32.04;41.48;95058.16;5123294;27;20313;-53
2022/07/01 08:09:04;;;;;;;10.52;4.78;;;31.20;60.40;;;32.17;41.42;95056.84;5125732;27;20643;-55
2022/07/01 08:11:31;;;;;;;10.50;4.18;;;31.30;60.40;;;32.30;41.19;95056.31;5125940;27;20229;-53
2022/07/01 08:13:59;;;;;;;12.25;4.50;;;31.40;59.90;;;32.47;41.01;95063.34;5126868;27;20685;-55
2022/07/01 08:16:26;;;;;;;9.82;4.30;;;31.60;59.60;;;32.64;40.90;95053.03;5125333;27;20217;-54
2022/07/01 08:18:53;;;;;;;5.55;4.28;;;31.80;59.20;;;32.84;40.54;95054.91;5126093;27;20198;-55
2022/07/01 08:21:22;;;;;;;18.15;4.45;;;32.00;58.70;;;33.04;39.79;95053.19;5122834;27;20229;-58
2022/07/01 08:23:49;;;;;;;12.50;4.47;;;32.20;57.70;;;33.22;39.70;95049.88;5127753;27;20670;-55
2022/07/01 08:26:17;;;;;;;10.70;4.40;;;32.30;57.70;;;33.41;39.85;95043.81;5127181;27;20713;-56
2022/07/01 08:28:45;;;;;;;9.82;4.38;;;32.50;57.50;;;33.62;39.76;95043.69;5126947;27;20292;-54
2022/07/01 08:31:12;;;;;;;18.88;4.13;;;32.70;57.30;;;33.81;39.63;95052.88;5126699;27;20218;-58
2022/07/01 08:33:40;;;;;;;12.77;4.95;;;32.90;56.90;;;33.94;38.69;95037.78;5126610;27;20655;-55
2022/07/01 08:36:08;;;;;;;13.27;4.88;;;33.10;56.30;;;34.06;39.35;95046.44;5122801;27;20233;-56
2022/07/01 08:38:37;;;;;;;3.75;3.40;;;33.20;56.40;;;34.24;39.56;95053.16;5126458;27;20206;-56
2022/07/01 08:41:04;;;;;;;6.13;4.45;;;33.30;56.50;;;34.43;38.41;95044.25;5126691;27;20226;-54
2022/07/01 08:43:32;;;;;;;8.27;4.43;;;33.50;55.80;;;34.62;38.82;95042.41;5126838;28;20206;-56
2022/07/01 08:46:01;;;;;;;5.22;4.72;;;33.70;55.00;;;34.77;38.44;95044.22;5126814;28;20663;-56
2022/07/01 08:48:28;;;;;;;7.68;4.22;;;33.90;54.40;;;34.87;38.07;95042.50;5126570;28;20198;-56
2022/07/01 08:50:55;;;;;;;8.55;4.30;;;34.00;54.40;;;35.01;37.88;95041.53;5126458;28;20222;-55
2022/07/01 08:53:23;;;;;;;9.07;4.10;;;34.10;53.80;;;35.15;37.27;95049.00;5126603;28;20201;-53
2022/07/01 08:58:37;;;;;;;11.93;4.65;;;34.40;53.30;;;35.31;37.35;95045.00;5126860;28;20689;-54
2022/07/01 09:01:15;;;;;;;5.88;4.50;;;34.50;52.60;;;35.43;36.81;95051.97;5125853;28;20276;-55
2022/07/01 09:03:43;;;;;;;4.35;3.97;;;34.60;53.00;;;35.56;37.06;95037.59;5125797;28;20206;-54
2022/07/01 09:06:15;;;;;;;8.60;3.88;;;34.70;52.60;;;35.66;36.89;95036.63;5126122;28;20284;-56
2022/07/01 09:08:42;;;;;;;5.75;4.72;;;34.80;52.30;;;35.73;36.87;95040.63;5121855;28;20230;-55
2022/07/01 09:11:15;;;;;;;13.52;4.82;;;34.90;52.00;;;35.82;37.05;95039.97;5119320;28;20221;-55
2022/07/01 09:13:43;;;;;;;7.95;5.00;;;35.00;52.50;;;35.90;37.12;95039.31;5125194;28;20186;-56
2022/07/01 09:16:15;;;;;;;16.80;5.38;;;35.10;52.00;;;35.98;36.79;95038.63;5117720;28;20286;-55
2022/07/01 09:19:00;;;;;;;6.90;4.07;;;35.20;52.20;;;36.08;36.42;95043.13;5119666;28;20205;-54
2022/07/01 09:21:29;;;;;;;8.50;4.68;;;35.20;51.70;;;36.13;36.15;95034.88;5118917;27;20223;-56
2022/07/01 09:23:56;;;;;;;11.95;5.70;;;35.30;51.20;;;36.17;36.46;95035.88;5124254;27;20613;-55
2022/07/01 09:26:27;;;;;;;7.32;4.82;;;35.40;51.30;;;36.18;36.46;95037.50;5126268;27;20242;-56
2022/07/01 09:28:55;;;;;;;5.88;4.38;;;35.40;51.10;;;36.22;35.94;95034.97;5126461;27;20197;-55
2022/07/01 09:31:22;;;;;;;13.50;4.95;;;35.40;50.70;;;36.28;35.82;95031.06;5121091;27;20309;-56
2022/07/01 09:34:04;;;;;;;8.27;4.30;;;35.50;50.60;;;36.36;34.28;95037.78;5127618;27;20218;-55
2022/07/01 09:36:32;;;;;;;9.32;5.60;;;35.50;48.90;;;36.39;35.85;95029.81;5125475;27;20230;-56
2022/07/01 09:39:03;;;;;;;6.57;4.97;;;35.60;49.90;;;36.38;35.00;95033.66;5121022;27;20195;-57
2022/07/01 09:41:38;;;;;;;8.23;5.03;;;35.60;49.80;;;36.39;34.58;95024.31;5129323;27;20241;-56
2022/07/01 09:44:06;;;;;;;6.68;3.78;;;35.60;48.80;;;36.37;34.74;95018.31;5125033;27;20225;-55
2022/07/01 09:46:33;;;;;;;10.25;5.10;;;35.60;48.90;;;36.40;34.80;95023.19;5125248;27;20253;-56
2022/07/01 09:49:01;;;;;;;7.30;3.60;;;35.50;49.00;;;36.39;34.33;95016.09;5125058;27;20309;-54
2022/07/01 09:51:28;;;;;;;4.80;3.78;;;35.60;47.90;;;36.39;33.24;95021.59;5124208;27;20253;-56
2022/07/01 09:53:56;;;;;;;10.00;3.65;;;35.60;47.20;;;36.29;32.16;95013.53;5122900;27;20691;-55
2022/07/01 09:56:24;;;;;;;7.75;4.35;;;35.50;45.50;;;36.19;32.58;95006.28;5128554;27;20213;-55
2022/07/01 09:58:52;;;;;;;6.72;3.70;;;35.40;45.20;;;36.11;31.86;95006.94;5129273;27;20202;-54
2022/07/01 10:01:20;;;;;;;8.50;4.07;;;35.40;45.00;;;36.05;32.64;95005.41;5129064;27;20226;-56
2022/07/01 10:03:47;;;;;;;8.52;4.03;;;35.30;44.80;;;36.04;31.93;95001.06;5125597;27;20286;-56
2022/07/01 10:06:40;;;;;;;10.85;3.75;;;35.20;45.20;;;36.00;32.02;94995.34;5129350;27;20230;-55
2022/07/01 10:09:44;;;;;;;4.60;3.38;;;35.20;44.80;;;36.01;31.03;94994.25;5126298;27;20784;-56
2022/07/01 10:12:40;;;;;;;4.53;4.03;;;35.20;44.40;;;36.10;31.81;95001.75;5091753;27;20732;-54
2022/07/01 10:15:11;;;;;;;10.88;4.25;;;35.20;43.40;;;36.12;31.60;95016.00;5128868;27;20250;-56
2022/07/01 10:17:42;;;;;;;11.35;3.85;;;35.30;44.60;;;36.01;31.46;95009.88;5124333;27;20195;-55
2022/07/01 10:20:12;;;;;;;4.72;3.72;;;35.20;44.20;;;35.84;29.71;94999.44;5128996;27;20225;-52
2022/07/01 10:22:40;;;;;;;5.38;3.85;;;35.10;41.60;;;35.71;30.21;94990.84;5129105;27;20197;-56
2022/07/01 10:25:41;;;;;;;9.45;3.80;;;35.00;41.10;;;35.67;29.60;94992.53;5129137;27;20234;-56
2022/07/01 10:28:29;;;;;;;8.82;3.78;;;34.90;41.30;;;35.70;30.17;94978.25;5125649;27;20194;-55
2022/07/01 10:31:02;;;;;;;5.55;3.53;;;34.90;42.00;;;35.71;31.13;94988.09;5124842;27;20706;-56
2022/07/01 10:33:49;;;;;;;4.63;4.22;;;34.90;42.60;;;35.72;30.83;94986.19;5127553;27;20225;-55
2022/07/01 10:36:26;;;;;;;3.30;3.10;;;34.90;42.90;;;35.72;30.93;94983.44;5125524;27;20224;-55
2022/07/01 10:39:22;;;;;;;3.45;3.25;;;34.90;42.90;;;35.75;28.98;94980.09;5128986;27;20201;-55